sensor_id;sensor_type;location;lat;lon;timestamp;P1;durP1;ratioP1;P2;durP2;ratioP2
46717;SDS011;32448;44.960;-0.698;2022-12-13T00:01:45;13.07;;;7.95;;
46717;SDS011;32448;44.960;-0.698;2022-12-13T00:04:14;11.57;;;7.53;;
46717;SDS011;32448;44.960;-0.698;2022-12-13T00:06:43;12.65;;;8.25;;
46717;SDS011;32448;44.960;-0.698;2022-12-13T00:09:14;13.57;;;9.27;;
46717;SDS011;32448;44.960;-0.698;2022-12-13T00:11:43;12.68;;;8.48;;
46717;SDS011;32448;44.960;-0.698;2022-12-13T00:14:12;11.73;;;7.80;;
46717;SDS011;32448;44.960;-0.698;2022-12-13T00:16:39;11.25;;;7.50;;
46717;SDS011;32448;44.960;-0.698;2022-12-13T00:19:11;10.88;;;7.28;;
46717;SDS011;32448;44.960;-0.698;2022-12-13T00:21:40;12.43;;;8.30;;
46717;SDS011;32448;44.960;-0.698;2022-12-13T00:24:08;14.20;;;8.52;;
46717;SDS011;32448;44.960;-0.698;2022-12-13T00:26:36;11.60;;;7.70;;
46717;SDS011;32448;44.960;-0.698;2022-12-13T00:29:05;13.23;;;7.60;;
46717;SDS011;32448;44.960;-0.698;2022-12-13T00:31:33;12.00;;;7.18;;
46717;SDS011;32448;44.960;-0.698;2022-12-13T00:34:22;11.02;;;7.22;;
46717;SDS011;32448;44.960;-0.698;2022-12-13T00:36:49;11.75;;;7.35;;
46717;SDS011;32448;44.960;-0.698;2022-12-13T00:39:19;11.48;;;6.88;;
46717;SDS011;32448;44.960;-0.698;2022-12-13T00:41:47;11.02;;;6.50;;
46717;SDS011;32448;44.960;-0.698;2022-12-13T00:44:15;9.40;;;6.40;;
46717;SDS011;32448;44.960;-0.698;2022-12-13T00:46:43;10.50;;;6.32;;
46717;SDS011;32448;44.960;-0.698;2022-12-13T00:49:11;8.73;;;5.78;;
46717;SDS011;32448;44.960;-0.698;2022-12-13T00:51:39;10.40;;;6.22;;
46717;SDS011;32448;44.960;-0.698;2022-12-13T00:54:09;7.55;;;4.97;;
46717;SDS011;32448;44.960;-0.698;2022-12-13T00:56:36;8.20;;;5.50;;
46717;SDS011;32448;44.960;-0.698;2022-12-13T00:59:04;11.43;;;6.22;;
46717;SDS011;32448;44.960;-0.698;2022-12-13T01:01:32;7.65;;;5.22;;
46717;SDS011;32448;44.960;-0.698;2022-12-13T01:04:03;8.13;;;5.45;;
46717;SDS011;32448;44.960;-0.698;2022-12-13T01:09:15;7.15;;;4.75;;
46717;SDS011;32448;44.960;-0.698;2022-12-13T01:11:46;8.63;;;5.00;;
46717;SDS011;32448;44.960;-0.698;2022-12-13T01:14:15;7.13;;;5.07;;
46717;SDS011;32448;44.960;-0.698;2022-12-13T01:16:44;7.30;;;4.65;;
46717;SDS011;32448;44.960;-0.698;2022-12-13T01:19:14;5.70;;;4.75;;
46717;SDS011;32448;44.960;-0.698;2022-12-13T01:21:43;7.03;;;4.60;;
46717;SDS011;32448;44.960;-0.698;2022-12-13T01:24:11;7.00;;;4.15;;
46717;SDS011;32448;44.960;-0.698;2022-12-13T01:26:40;7.22;;;4.15;;
46717;SDS011;32448;44.960;-0.698;2022-12-13T01:29:08;6.75;;;4.75;;
46717;SDS011;32448;44.960;-0.698;2022-12-13T01:31:38;6.53;;;4.00;;
46717;SDS011;32448;44.960;-0.698;2022-12-13T01:34:09;5.68;;;4.20;;
46717;SDS011;32448;44.960;-0.698;2022-12-13T01:36:39;6.38;;;3.85;;
46717;SDS011;32448;44.960;-0.698;2022-12-13T01:39:09;7.22;;;4.28;;
46717;SDS011;32448;44.960;-0.698;2022-12-13T01:41:41;5.07;;;3.72;;
46717;SDS011;32448;44.960;-0.698;2022-12-13T01:47:17;5.82;;;3.78;;
46717;SDS011;32448;44.960;-0.698;2022-12-13T01:49:53;5.70;;;3.90;;
46717;SDS011;32448;44.960;-0.698;2022-12-13T01:52:25;4.38;;;2.85;;
46717;SDS011;32448;44.960;-0.698;2022-12-13T01:54:57;3.67;;;3.15;;
46717;SDS011;32448;44.960;-0.698;2022-12-13T01:57:29;4.65;;;3.35;;
46717;SDS011;32448;44.960;-0.698;2022-12-13T01:59:59;4.43;;;3.40;;
46717;SDS011;32448;44.960;-0.698;2022-12-13T02:05:06;3.95;;;2.75;;
46717;SDS011;32448;44.960;-0.698;2022-12-13T02:07:39;3.15;;;2.38;;
46717;SDS011;32448;44.960;-0.698;2022-12-13T02:10:10;3.60;;;2.50;;
46717;SDS011;32448;44.960;-0.698;2022-12-13T02:12:40;4.80;;;3.20;;
46717;SDS011;32448;44.960;-0.698;2022-12-13T02:15:10;4.90;;;3.40;;
46717;SDS011;32448;44.960;-0.698;2022-12-13T02:26:23;3.83;;;2.85;;
46717;SDS011;32448;44.960;-0.698;2022-12-13T02:32:03;3.00;;;2.15;;
46717;SDS011;32448;44.960;-0.698;2022-12-13T02:40:25;4.32;;;2.50;;
46717;SDS011;32448;44.960;-0.698;2022-12-13T02:43:05;3.72;;;2.88;;
46717;SDS011;32448;44.960;-0.698;2022-12-13T02:45:39;3.53;;;2.30;;
46717;SDS011;32448;44.960;-0.698;2022-12-13T02:48:15;6.15;;;2.83;;
46717;SDS011;32448;44.960;-0.698;2022-12-13T02:50:55;5.90;;;2.58;;
46717;SDS011;32448;44.960;-0.698;2022-12-13T02:53:26;4.10;;;2.78;;
46717;SDS011;32448;44.960;-0.698;2022-12-13T02:55:59;2.88;;;2.25;;
46717;SDS011;32448;44.960;-0.698;2022-12-13T02:58:28;4.47;;;2.17;;
46717;SDS011;32448;44.960;-0.698;2022-12-13T03:04:17;4.97;;;2.40;;
46717;SDS011;32448;44.960;-0.698;2022-12-13T03:07:16;3.55;;;2.15;;
46717;SDS011;32448;44.960;-0.698;2022-12-13T03:09:56;4.68;;;2.38;;
46717;SDS011;32448;44.960;-0.698;2022-12-13T03:18:14;5.85;;;4.20;;
46717;SDS011;32448;44.960;-0.698;2022-12-13T03:20:55;7.35;;;4.72;;
46717;SDS011;32448;44.960;-0.698;2022-12-13T03:23:24;7.05;;;4.35;;
46717;SDS011;32448;44.960;-0.698;2022-12-13T03:25:54;6.25;;;4.32;;
46717;SDS011;32448;44.960;-0.698;2022-12-13T03:28:25;6.63;;;4.40;;
46717;SDS011;32448;44.960;-0.698;2022-12-13T03:30:54;7.97;;;5.40;;
46717;SDS011;32448;44.960;-0.698;2022-12-13T03:33:21;8.10;;;5.32;;
46717;SDS011;32448;44.960;-0.698;2022-12-13T03:35:49;14.60;;;8.65;;
46717;SDS011;32448;44.960;-0.698;2022-12-13T03:38:17;11.85;;;6.88;;
46717;SDS011;32448;44.960;-0.698;2022-12-13T03:40:59;8.13;;;5.15;;
46717;SDS011;32448;44.960;-0.698;2022-12-13T03:43:32;10.32;;;7.30;;
46717;SDS011;32448;44.960;-0.698;2022-12-13T03:46:00;9.68;;;6.38;;
46717;SDS011;32448;44.960;-0.698;2022-12-13T03:48:28;8.60;;;5.68;;
46717;SDS011;32448;44.960;-0.698;2022-12-13T03:50:55;9.23;;;5.68;;
46717;SDS011;32448;44.960;-0.698;2022-12-13T03:53:24;12.32;;;6.30;;
46717;SDS011;32448;44.960;-0.698;2022-12-13T03:56:00;8.70;;;5.22;;
46717;SDS011;32448;44.960;-0.698;2022-12-13T03:58:29;10.93;;;6.15;;
46717;SDS011;32448;44.960;-0.698;2022-12-13T04:03:33;11.18;;;6.43;;
46717;SDS011;32448;44.960;-0.698;2022-12-13T04:06:01;10.10;;;6.10;;
46717;SDS011;32448;44.960;-0.698;2022-12-13T04:08:29;8.75;;;5.63;;
46717;SDS011;32448;44.960;-0.698;2022-12-13T04:11:06;8.65;;;5.88;;
46717;SDS011;32448;44.960;-0.698;2022-12-13T04:13:53;11.10;;;6.30;;
46717;SDS011;32448;44.960;-0.698;2022-12-13T04:16:21;11.30;;;5.95;;
46717;SDS011;32448;44.960;-0.698;2022-12-13T04:18:50;9.95;;;6.28;;
46717;SDS011;32448;44.960;-0.698;2022-12-13T04:21:18;12.13;;;6.38;;
46717;SDS011;32448;44.960;-0.698;2022-12-13T04:23:45;11.45;;;6.40;;
46717;SDS011;32448;44.960;-0.698;2022-12-13T04:26:13;12.35;;;6.50;;
46717;SDS011;32448;44.960;-0.698;2022-12-13T04:28:40;12.63;;;7.07;;
46717;SDS011;32448;44.960;-0.698;2022-12-13T04:31:08;13.23;;;7.70;;
46717;SDS011;32448;44.960;-0.698;2022-12-13T04:33:36;12.30;;;7.68;;
46717;SDS011;32448;44.960;-0.698;2022-12-13T04:36:05;13.27;;;7.70;;
46717;SDS011;32448;44.960;-0.698;2022-12-13T04:38:33;12.68;;;7.97;;
46717;SDS011;32448;44.960;-0.698;2022-12-13T04:41:05;15.40;;;8.88;;
46717;SDS011;32448;44.960;-0.698;2022-12-13T04:43:34;15.50;;;8.87;;
46717;SDS011;32448;44.960;-0.698;2022-12-13T04:46:01;16.67;;;9.15;;
46717;SDS011;32448;44.960;-0.698;2022-12-13T04:48:28;15.52;;;8.45;;
46717;SDS011;32448;44.960;-0.698;2022-12-13T04:50:58;15.43;;;8.32;;
46717;SDS011;32448;44.960;-0.698;2022-12-13T04:53:29;17.27;;;9.07;;
46717;SDS011;32448;44.960;-0.698;2022-12-13T04:55:58;15.18;;;8.88;;
46717;SDS011;32448;44.960;-0.698;2022-12-13T04:58:26;17.98;;;9.98;;
46717;SDS011;32448;44.960;-0.698;2022-12-13T05:00:54;12.73;;;8.43;;
46717;SDS011;32448;44.960;-0.698;2022-12-13T05:03:22;18.02;;;9.88;;
46717;SDS011;32448;44.960;-0.698;2022-12-13T05:05:50;22.17;;;10.82;;
46717;SDS011;32448;44.960;-0.698;2022-12-13T05:08:18;19.90;;;10.40;;
46717;SDS011;32448;44.960;-0.698;2022-12-13T05:10:45;16.92;;;10.05;;
46717;SDS011;32448;44.960;-0.698;2022-12-13T05:13:13;20.70;;;10.98;;
46717;SDS011;32448;44.960;-0.698;2022-12-13T05:15:40;20.20;;;10.70;;
46717;SDS011;32448;44.960;-0.698;2022-12-13T05:18:08;18.05;;;10.57;;
46717;SDS011;32448;44.960;-0.698;2022-12-13T05:20:40;24.60;;;11.55;;
46717;SDS011;32448;44.960;-0.698;2022-12-13T05:23:08;22.95;;;12.43;;
46717;SDS011;32448;44.960;-0.698;2022-12-13T05:25:35;23.55;;;12.30;;
46717;SDS011;32448;44.960;-0.698;2022-12-13T05:28:04;25.58;;;11.98;;
46717;SDS011;32448;44.960;-0.698;2022-12-13T05:30:51;22.90;;;11.98;;
46717;SDS011;32448;44.960;-0.698;2022-12-13T05:33:24;24.00;;;13.05;;
46717;SDS011;32448;44.960;-0.698;2022-12-13T05:35:53;28.55;;;12.88;;
46717;SDS011;32448;44.960;-0.698;2022-12-13T05:38:27;23.42;;;12.52;;
46717;SDS011;32448;44.960;-0.698;2022-12-13T05:40:56;24.15;;;12.52;;
46717;SDS011;32448;44.960;-0.698;2022-12-13T05:43:24;22.80;;;11.80;;
46717;SDS011;32448;44.960;-0.698;2022-12-13T05:46:13;26.98;;;13.07;;
46717;SDS011;32448;44.960;-0.698;2022-12-13T05:48:41;27.60;;;13.35;;
46717;SDS011;32448;44.960;-0.698;2022-12-13T05:51:09;30.95;;;14.15;;
46717;SDS011;32448;44.960;-0.698;2022-12-13T05:53:39;36.70;;;14.23;;
46717;SDS011;32448;44.960;-0.698;2022-12-13T05:56:08;27.63;;;13.32;;
46717;SDS011;32448;44.960;-0.698;2022-12-13T05:58:37;31.52;;;15.02;;
46717;SDS011;32448;44.960;-0.698;2022-12-13T06:01:07;32.47;;;14.40;;
46717;SDS011;32448;44.960;-0.698;2022-12-13T06:03:37;32.42;;;15.95;;
46717;SDS011;32448;44.960;-0.698;2022-12-13T06:06:06;35.50;;;15.27;;
46717;SDS011;32448;44.960;-0.698;2022-12-13T06:08:35;33.53;;;15.38;;
46717;SDS011;32448;44.960;-0.698;2022-12-13T06:11:03;32.75;;;15.43;;
46717;SDS011;32448;44.960;-0.698;2022-12-13T06:13:43;27.55;;;14.02;;
46717;SDS011;32448;44.960;-0.698;2022-12-13T06:16:36;31.33;;;13.45;;
46717;SDS011;32448;44.960;-0.698;2022-12-13T06:19:05;31.42;;;14.02;;
46717;SDS011;32448;44.960;-0.698;2022-12-13T06:21:33;32.70;;;15.85;;
46717;SDS011;32448;44.960;-0.698;2022-12-13T06:24:12;29.20;;;14.98;;
46717;SDS011;32448;44.960;-0.698;2022-12-13T06:26:44;31.73;;;14.25;;
46717;SDS011;32448;44.960;-0.698;2022-12-13T06:29:12;29.45;;;15.10;;
46717;SDS011;32448;44.960;-0.698;2022-12-13T06:31:50;29.60;;;14.07;;
46717;SDS011;32448;44.960;-0.698;2022-12-13T06:34:19;30.10;;;14.90;;
46717;SDS011;32448;44.960;-0.698;2022-12-13T06:36:47;36.38;;;17.35;;
46717;SDS011;32448;44.960;-0.698;2022-12-13T06:39:15;28.27;;;15.35;;
46717;SDS011;32448;44.960;-0.698;2022-12-13T06:41:42;29.55;;;14.55;;
46717;SDS011;32448;44.960;-0.698;2022-12-13T06:44:10;31.15;;;15.15;;
46717;SDS011;32448;44.960;-0.698;2022-12-13T06:46:38;27.40;;;14.50;;
46717;SDS011;32448;44.960;-0.698;2022-12-13T06:49:06;33.55;;;14.95;;
46717;SDS011;32448;44.960;-0.698;2022-12-13T06:51:34;33.28;;;15.02;;
46717;SDS011;32448;44.960;-0.698;2022-12-13T06:54:02;31.92;;;15.57;;
46717;SDS011;32448;44.960;-0.698;2022-12-13T06:56:29;32.47;;;14.98;;
46717;SDS011;32448;44.960;-0.698;2022-12-13T06:58:57;27.52;;;14.18;;
46717;SDS011;32448;44.960;-0.698;2022-12-13T07:01:27;26.50;;;14.55;;
46717;SDS011;32448;44.960;-0.698;2022-12-13T07:04:04;32.83;;;15.88;;
46717;SDS011;32448;44.960;-0.698;2022-12-13T07:06:52;31.55;;;15.15;;
46717;SDS011;32448;44.960;-0.698;2022-12-13T07:09:19;27.75;;;14.77;;
46717;SDS011;32448;44.960;-0.698;2022-12-13T07:11:47;26.45;;;14.05;;
46717;SDS011;32448;44.960;-0.698;2022-12-13T07:14:18;31.23;;;14.10;;
46717;SDS011;32448;44.960;-0.698;2022-12-13T07:16:45;30.63;;;15.93;;
46717;SDS011;32448;44.960;-0.698;2022-12-13T07:19:13;29.17;;;14.85;;
46717;SDS011;32448;44.960;-0.698;2022-12-13T07:21:50;33.72;;;14.80;;
46717;SDS011;32448;44.960;-0.698;2022-12-13T07:24:18;32.65;;;15.30;;
46717;SDS011;32448;44.960;-0.698;2022-12-13T07:26:45;34.45;;;15.85;;
46717;SDS011;32448;44.960;-0.698;2022-12-13T07:29:12;31.02;;;15.05;;
46717;SDS011;32448;44.960;-0.698;2022-12-13T07:31:48;29.42;;;14.98;;
46717;SDS011;32448;44.960;-0.698;2022-12-13T07:34:15;27.92;;;14.70;;
46717;SDS011;32448;44.960;-0.698;2022-12-13T07:36:43;27.70;;;14.68;;
46717;SDS011;32448;44.960;-0.698;2022-12-13T07:39:10;27.30;;;14.40;;
46717;SDS011;32448;44.960;-0.698;2022-12-13T07:41:38;29.33;;;15.07;;
46717;SDS011;32448;44.960;-0.698;2022-12-13T07:44:06;28.50;;;15.00;;
46717;SDS011;32448;44.960;-0.698;2022-12-13T07:46:33;35.40;;;17.30;;
46717;SDS011;32448;44.960;-0.698;2022-12-13T07:49:01;38.67;;;18.48;;
46717;SDS011;32448;44.960;-0.698;2022-12-13T07:51:29;35.38;;;17.52;;
46717;SDS011;32448;44.960;-0.698;2022-12-13T07:54:02;39.03;;;17.02;;
46717;SDS011;32448;44.960;-0.698;2022-12-13T07:56:32;37.65;;;17.45;;
46717;SDS011;32448;44.960;-0.698;2022-12-13T07:59:01;35.55;;;17.10;;
46717;SDS011;32448;44.960;-0.698;2022-12-13T08:01:30;28.38;;;14.80;;
46717;SDS011;32448;44.960;-0.698;2022-12-13T08:04:01;33.17;;;16.98;;
46717;SDS011;32448;44.960;-0.698;2022-12-13T08:06:34;35.45;;;17.30;;
46717;SDS011;32448;44.960;-0.698;2022-12-13T08:09:03;35.10;;;17.52;;
46717;SDS011;32448;44.960;-0.698;2022-12-13T08:11:31;42.75;;;17.23;;
46717;SDS011;32448;44.960;-0.698;2022-12-13T08:13:59;37.33;;;17.85;;
46717;SDS011;32448;44.960;-0.698;2022-12-13T08:16:28;35.00;;;17.00;;
46717;SDS011;32448;44.960;-0.698;2022-12-13T08:18:56;42.38;;;18.25;;
46717;SDS011;32448;44.960;-0.698;2022-12-13T08:21:31;36.78;;;17.38;;
46717;SDS011;32448;44.960;-0.698;2022-12-13T08:24:21;35.80;;;17.10;;
46717;SDS011;32448;44.960;-0.698;2022-12-13T08:26:52;39.63;;;18.73;;
46717;SDS011;32448;44.960;-0.698;2022-12-13T08:29:21;45.83;;;20.40;;
46717;SDS011;32448;44.960;-0.698;2022-12-13T08:32:07;46.17;;;20.25;;
46717;SDS011;32448;44.960;-0.698;2022-12-13T08:34:36;42.22;;;20.35;;
46717;SDS011;32448;44.960;-0.698;2022-12-13T08:37:04;44.85;;;20.35;;
46717;SDS011;32448;44.960;-0.698;2022-12-13T08:39:33;39.78;;;19.08;;
46717;SDS011;32448;44.960;-0.698;2022-12-13T08:42:13;42.28;;;18.98;;
46717;SDS011;32448;44.960;-0.698;2022-12-13T08:44:47;40.38;;;18.02;;
46717;SDS011;32448;44.960;-0.698;2022-12-13T08:47:18;39.30;;;17.77;;
46717;SDS011;32448;44.960;-0.698;2022-12-13T08:49:55;45.78;;;17.48;;
46717;SDS011;32448;44.960;-0.698;2022-12-13T08:52:32;40.10;;;17.88;;
46717;SDS011;32448;44.960;-0.698;2022-12-13T08:55:11;44.72;;;18.95;;
46717;SDS011;32448;44.960;-0.698;2022-12-13T08:57:40;37.92;;;17.40;;
46717;SDS011;32448;44.960;-0.698;2022-12-13T09:00:13;36.08;;;17.83;;
46717;SDS011;32448;44.960;-0.698;2022-12-13T09:02:44;42.20;;;18.65;;
46717;SDS011;32448;44.960;-0.698;2022-12-13T09:05:12;41.55;;;18.67;;
46717;SDS011;32448;44.960;-0.698;2022-12-13T09:08:00;39.03;;;18.52;;
46717;SDS011;32448;44.960;-0.698;2022-12-13T09:10:57;42.92;;;18.00;;
46717;SDS011;32448;44.960;-0.698;2022-12-13T09:13:48;43.63;;;19.70;;
46717;SDS011;32448;44.960;-0.698;2022-12-13T09:16:17;43.72;;;20.27;;
46717;SDS011;32448;44.960;-0.698;2022-12-13T09:18:51;56.70;;;22.92;;
46717;SDS011;32448;44.960;-0.698;2022-12-13T09:21:21;42.65;;;20.27;;
46717;SDS011;32448;44.960;-0.698;2022-12-13T09:23:59;44.13;;;19.63;;
46717;SDS011;32448;44.960;-0.698;2022-12-13T09:26:28;41.28;;;18.67;;
46717;SDS011;32448;44.960;-0.698;2022-12-13T09:29:04;40.88;;;18.60;;
46717;SDS011;32448;44.960;-0.698;2022-12-13T09:31:37;42.40;;;19.38;;
46717;SDS011;32448;44.960;-0.698;2022-12-13T09:34:07;40.67;;;20.00;;
46717;SDS011;32448;44.960;-0.698;2022-12-13T09:36:36;46.17;;;21.77;;
46717;SDS011;32448;44.960;-0.698;2022-12-13T09:39:09;41.58;;;20.48;;
46717;SDS011;32448;44.960;-0.698;2022-12-13T09:41:42;48.25;;;21.63;;
46717;SDS011;32448;44.960;-0.698;2022-12-13T09:46:59;45.25;;;20.38;;
46717;SDS011;32448;44.960;-0.698;2022-12-13T09:49:43;38.00;;;18.45;;
46717;SDS011;32448;44.960;-0.698;2022-12-13T09:52:18;44.78;;;18.88;;
46717;SDS011;32448;44.960;-0.698;2022-12-13T09:54:53;44.00;;;18.60;;
46717;SDS011;32448;44.960;-0.698;2022-12-13T09:57:28;43.45;;;17.85;;
46717;SDS011;32448;44.960;-0.698;2022-12-13T10:00:04;34.13;;;16.00;;
46717;SDS011;32448;44.960;-0.698;2022-12-13T10:02:44;32.70;;;15.20;;
46717;SDS011;32448;44.960;-0.698;2022-12-13T10:05:19;27.52;;;12.82;;
46717;SDS011;32448;44.960;-0.698;2022-12-13T10:08:05;25.83;;;12.48;;
46717;SDS011;32448;44.960;-0.698;2022-12-13T10:10:41;26.65;;;12.70;;
46717;SDS011;32448;44.960;-0.698;2022-12-13T10:13:12;31.63;;;12.40;;
46717;SDS011;32448;44.960;-0.698;2022-12-13T10:15:47;23.30;;;10.95;;
46717;SDS011;32448;44.960;-0.698;2022-12-13T10:18:30;21.38;;;11.05;;
46717;SDS011;32448;44.960;-0.698;2022-12-13T10:21:03;23.38;;;10.93;;
46717;SDS011;32448;44.960;-0.698;2022-12-13T10:23:42;26.30;;;11.75;;
46717;SDS011;32448;44.960;-0.698;2022-12-13T10:26:34;28.40;;;12.30;;
46717;SDS011;32448;44.960;-0.698;2022-12-13T10:29:04;26.90;;;13.25;;
46717;SDS011;32448;44.960;-0.698;2022-12-13T10:31:39;27.55;;;12.55;;
46717;SDS011;32448;44.960;-0.698;2022-12-13T10:36:43;28.75;;;13.23;;
46717;SDS011;32448;44.960;-0.698;2022-12-13T10:42:11;27.48;;;12.88;;
46717;SDS011;32448;44.960;-0.698;2022-12-13T10:47:49;25.42;;;11.93;;
46717;SDS011;32448;44.960;-0.698;2022-12-13T10:50:26;24.02;;;11.48;;
46717;SDS011;32448;44.960;-0.698;2022-12-13T10:52:56;26.27;;;12.05;;
46717;SDS011;32448;44.960;-0.698;2022-12-13T10:55:26;20.42;;;9.45;;
46717;SDS011;32448;44.960;-0.698;2022-12-13T10:58:03;23.25;;;10.27;;
46717;SDS011;32448;44.960;-0.698;2022-12-13T11:03:05;23.98;;;10.57;;
46717;SDS011;32448;44.960;-0.698;2022-12-13T11:05:34;21.40;;;10.45;;
46717;SDS011;32448;44.960;-0.698;2022-12-13T11:08:14;20.73;;;10.20;;
46717;SDS011;32448;44.960;-0.698;2022-12-13T11:10:56;40.22;;;14.50;;
46717;SDS011;32448;44.960;-0.698;2022-12-13T11:13:44;38.40;;;15.23;;
46717;SDS011;32448;44.960;-0.698;2022-12-13T11:19:15;37.78;;;15.73;;
46717;SDS011;32448;44.960;-0.698;2022-12-13T11:22:01;40.85;;;16.92;;
46717;SDS011;32448;44.960;-0.698;2022-12-13T11:24:30;39.15;;;16.40;;
46717;SDS011;32448;44.960;-0.698;2022-12-13T11:27:20;34.63;;;16.05;;
46717;SDS011;32448;44.960;-0.698;2022-12-13T11:29:59;34.00;;;16.63;;
46717;SDS011;32448;44.960;-0.698;2022-12-13T11:32:36;30.65;;;14.68;;
46717;SDS011;32448;44.960;-0.698;2022-12-13T11:35:13;32.95;;;16.35;;
46717;SDS011;32448;44.960;-0.698;2022-12-13T11:37:53;32.50;;;16.10;;
46717;SDS011;32448;44.960;-0.698;2022-12-13T11:40:52;31.27;;;15.85;;
46717;SDS011;32448;44.960;-0.698;2022-12-13T11:43:36;35.13;;;16.48;;
46717;SDS011;32448;44.960;-0.698;2022-12-13T11:46:13;29.95;;;16.15;;
46717;SDS011;32448;44.960;-0.698;2022-12-13T11:51:30;29.83;;;15.63;;
46717;SDS011;32448;44.960;-0.698;2022-12-13T11:54:09;37.72;;;16.75;;
46717;SDS011;32448;44.960;-0.698;2022-12-13T11:56:55;35.45;;;17.50;;
46717;SDS011;32448;44.960;-0.698;2022-12-13T12:04:56;34.22;;;16.45;;
46717;SDS011;32448;44.960;-0.698;2022-12-13T12:07:38;32.53;;;17.17;;
46717;SDS011;32448;44.960;-0.698;2022-12-13T12:10:32;33.72;;;16.95;;
46717;SDS011;32448;44.960;-0.698;2022-12-13T12:13:12;30.20;;;15.43;;
46717;SDS011;32448;44.960;-0.698;2022-12-13T12:18:39;30.70;;;16.63;;
46717;SDS011;32448;44.960;-0.698;2022-12-13T12:21:16;33.30;;;16.52;;
46717;SDS011;32448;44.960;-0.698;2022-12-13T12:30:02;34.83;;;17.67;;
46717;SDS011;32448;44.960;-0.698;2022-12-13T12:33:32;32.90;;;18.55;;
46717;SDS011;32448;44.960;-0.698;2022-12-13T12:36:05;33.03;;;17.23;;
46717;SDS011;32448;44.960;-0.698;2022-12-13T12:39:00;33.53;;;18.02;;
46717;SDS011;32448;44.960;-0.698;2022-12-13T12:55:18;31.13;;;16.33;;
46717;SDS011;32448;44.960;-0.698;2022-12-13T12:57:59;36.50;;;18.38;;
46717;SDS011;32448;44.960;-0.698;2022-12-13T13:00:29;33.28;;;17.38;;
46717;SDS011;32448;44.960;-0.698;2022-12-13T13:03:21;31.98;;;17.67;;
46717;SDS011;32448;44.960;-0.698;2022-12-13T13:05:58;33.10;;;17.02;;
46717;SDS011;32448;44.960;-0.698;2022-12-13T13:09:17;32.47;;;16.77;;
46717;SDS011;32448;44.960;-0.698;2022-12-13T13:11:35;30.38;;;17.35;;
46717;SDS011;32448;44.960;-0.698;2022-12-13T13:16:59;36.40;;;19.38;;
46717;SDS011;32448;44.960;-0.698;2022-12-13T13:19:48;37.75;;;20.15;;
46717;SDS011;32448;44.960;-0.698;2022-12-13T13:22:26;39.67;;;20.83;;
46717;SDS011;32448;44.960;-0.698;2022-12-13T13:24:59;39.67;;;20.67;;
46717;SDS011;32448;44.960;-0.698;2022-12-13T13:28:19;39.45;;;21.58;;
46717;SDS011;32448;44.960;-0.698;2022-12-13T13:31:06;44.65;;;22.95;;
46717;SDS011;32448;44.960;-0.698;2022-12-13T13:33:43;41.58;;;22.02;;
46717;SDS011;32448;44.960;-0.698;2022-12-13T13:39:15;40.33;;;20.95;;
46717;SDS011;32448;44.960;-0.698;2022-12-13T13:52:30;42.15;;;22.85;;
46717;SDS011;32448;44.960;-0.698;2022-12-13T13:55:16;45.08;;;23.25;;
46717;SDS011;32448;44.960;-0.698;2022-12-13T13:58:09;46.03;;;22.63;;
46717;SDS011;32448;44.960;-0.698;2022-12-13T14:00:56;44.78;;;22.63;;
46717;SDS011;32448;44.960;-0.698;2022-12-13T14:21:00;49.05;;;24.58;;
46717;SDS011;32448;44.960;-0.698;2022-12-13T14:28:50;42.38;;;22.08;;
46717;SDS011;32448;44.960;-0.698;2022-12-13T14:31:29;43.22;;;21.42;;
46717;SDS011;32448;44.960;-0.698;2022-12-13T14:34:18;44.97;;;22.20;;
46717;SDS011;32448;44.960;-0.698;2022-12-13T14:36:52;50.85;;;22.52;;
46717;SDS011;32448;44.960;-0.698;2022-12-13T14:39:22;39.05;;;20.77;;
46717;SDS011;32448;44.960;-0.698;2022-12-13T14:41:55;34.58;;;19.30;;
46717;SDS011;32448;44.960;-0.698;2022-12-13T14:44:26;39.05;;;19.15;;
46717;SDS011;32448;44.960;-0.698;2022-12-13T14:46:56;37.75;;;20.30;;
46717;SDS011;32448;44.960;-0.698;2022-12-13T14:49:33;34.75;;;18.60;;
46717;SDS011;32448;44.960;-0.698;2022-12-13T14:52:05;31.63;;;17.60;;
46717;SDS011;32448;44.960;-0.698;2022-12-13T14:54:45;32.05;;;17.48;;
46717;SDS011;32448;44.960;-0.698;2022-12-13T14:57:24;33.65;;;18.48;;
46717;SDS011;32448;44.960;-0.698;2022-12-13T14:59:55;29.02;;;16.20;;
46717;SDS011;32448;44.960;-0.698;2022-12-13T15:02:25;35.08;;;17.05;;
46717;SDS011;32448;44.960;-0.698;2022-12-13T15:04:58;29.40;;;17.55;;
46717;SDS011;32448;44.960;-0.698;2022-12-13T15:07:31;29.00;;;15.50;;
46717;SDS011;32448;44.960;-0.698;2022-12-13T15:10:04;29.35;;;15.85;;
46717;SDS011;32448;44.960;-0.698;2022-12-13T15:12:44;27.73;;;14.98;;
46717;SDS011;32448;44.960;-0.698;2022-12-13T15:18:15;23.75;;;13.63;;
46717;SDS011;32448;44.960;-0.698;2022-12-13T15:20:48;37.20;;;15.48;;
46717;SDS011;32448;44.960;-0.698;2022-12-13T15:23:33;25.10;;;13.20;;
46717;SDS011;32448;44.960;-0.698;2022-12-13T15:26:21;26.33;;;14.02;;
46717;SDS011;32448;44.960;-0.698;2022-12-13T15:28:56;25.05;;;14.20;;
46717;SDS011;32448;44.960;-0.698;2022-12-13T15:31:35;22.08;;;13.73;;
46717;SDS011;32448;44.960;-0.698;2022-12-13T15:34:30;26.25;;;14.43;;
46717;SDS011;32448;44.960;-0.698;2022-12-13T15:37:02;26.98;;;15.80;;
46717;SDS011;32448;44.960;-0.698;2022-12-13T15:39:39;27.05;;;14.40;;
46717;SDS011;32448;44.960;-0.698;2022-12-13T15:42:17;27.88;;;15.77;;
46717;SDS011;32448;44.960;-0.698;2022-12-13T15:44:50;33.05;;;16.75;;
46717;SDS011;32448;44.960;-0.698;2022-12-13T15:47:26;29.95;;;16.58;;
46717;SDS011;32448;44.960;-0.698;2022-12-13T15:49:58;26.08;;;15.20;;
46717;SDS011;32448;44.960;-0.698;2022-12-13T15:57:56;31.98;;;17.35;;
46717;SDS011;32448;44.960;-0.698;2022-12-13T16:00:24;31.90;;;18.33;;
46717;SDS011;32448;44.960;-0.698;2022-12-13T16:03:10;30.08;;;16.60;;
46717;SDS011;32448;44.960;-0.698;2022-12-13T16:05:44;32.88;;;17.42;;
46717;SDS011;32448;44.960;-0.698;2022-12-13T16:10:53;31.92;;;17.27;;
46717;SDS011;32448;44.960;-0.698;2022-12-13T16:13:28;38.13;;;17.95;;
46717;SDS011;32448;44.960;-0.698;2022-12-13T16:16:18;34.42;;;16.77;;
46717;SDS011;32448;44.960;-0.698;2022-12-13T16:18:59;31.05;;;17.05;;
46717;SDS011;32448;44.960;-0.698;2022-12-13T16:21:27;28.40;;;16.77;;
46717;SDS011;32448;44.960;-0.698;2022-12-13T16:23:57;28.08;;;16.67;;
46717;SDS011;32448;44.960;-0.698;2022-12-13T16:26:25;32.63;;;18.20;;
46717;SDS011;32448;44.960;-0.698;2022-12-13T16:28:54;36.38;;;18.08;;
46717;SDS011;32448;44.960;-0.698;2022-12-13T16:31:27;34.13;;;17.77;;
46717;SDS011;32448;44.960;-0.698;2022-12-13T16:34:02;33.00;;;18.23;;
46717;SDS011;32448;44.960;-0.698;2022-12-13T16:36:33;35.13;;;17.75;;
46717;SDS011;32448;44.960;-0.698;2022-12-13T16:39:04;33.47;;;17.85;;
46717;SDS011;32448;44.960;-0.698;2022-12-13T16:41:36;32.22;;;17.48;;
46717;SDS011;32448;44.960;-0.698;2022-12-13T16:44:07;35.10;;;18.80;;
46717;SDS011;32448;44.960;-0.698;2022-12-13T16:46:39;34.58;;;17.58;;
46717;SDS011;32448;44.960;-0.698;2022-12-13T16:49:27;38.47;;;17.73;;
46717;SDS011;32448;44.960;-0.698;2022-12-13T16:51:56;32.78;;;16.98;;
46717;SDS011;32448;44.960;-0.698;2022-12-13T16:54:24;29.60;;;17.33;;
46717;SDS011;32448;44.960;-0.698;2022-12-13T16:56:53;34.70;;;17.45;;
46717;SDS011;32448;44.960;-0.698;2022-12-13T16:59:22;33.58;;;18.08;;
46717;SDS011;32448;44.960;-0.698;2022-12-13T17:01:52;33.47;;;18.00;;
46717;SDS011;32448;44.960;-0.698;2022-12-13T17:04:22;32.25;;;18.25;;
46717;SDS011;32448;44.960;-0.698;2022-12-13T17:06:50;37.08;;;19.65;;
46717;SDS011;32448;44.960;-0.698;2022-12-13T17:09:21;33.45;;;18.35;;